createdAt,value
2018-08-17T15:39:07.068Z,2.87
2018-08-17T15:41:41.741Z,2.75
2018-08-17T15:44:40.483Z,3.33
2018-08-17T15:47:08.940Z,3.33
2018-08-17T15:49:37.307Z,3.65
2018-08-17T15:52:06.680Z,3.67
2018-08-17T15:54:34.970Z,4.03
2018-08-17T15:57:03.308Z,3.47
2018-08-17T15:59:31.580Z,3.60
2018-08-17T16:01:59.974Z,4.15
2018-08-17T16:04:28.522Z,3.40
2018-08-17T16:06:58.134Z,3.40
2018-08-17T16:09:26.382Z,4.40
2018-08-17T16:11:54.654Z,4.72
2018-08-17T16:14:23.113Z,5.33
2018-08-17T16:16:51.456Z,5.55
2018-08-17T16:19:19.688Z,5.93
2018-08-17T16:21:47.993Z,5.60
2018-08-17T16:24:16.249Z,5.17
2018-08-17T16:26:44.501Z,4.05
2018-08-17T16:29:14.003Z,4.60
2018-08-17T16:31:43.033Z,4.12
2018-08-17T16:34:11.354Z,3.77
2018-08-17T16:36:41.605Z,3.40
2018-08-17T16:39:12.984Z,4.10
2018-08-17T16:41:41.345Z,3.90
2018-08-17T16:44:09.710Z,4.25
2018-08-17T16:46:39.089Z,4.90
2018-08-17T16:49:07.647Z,4.17
2018-08-17T16:51:43.852Z,3.52
2018-08-17T16:54:12.239Z,4.25
2018-08-17T16:56:41.989Z,5.30
2018-08-17T16:59:10.280Z,4.10
2018-08-17T17:01:38.620Z,3.37
2018-08-17T17:04:06.914Z,3.73
2018-08-17T17:06:35.720Z,3.20
2018-08-17T17:09:07.163Z,3.87
2018-08-17T17:11:35.824Z,3.08
2018-08-17T17:14:04.132Z,3.63
2018-08-17T17:16:44.972Z,3.30
2018-08-17T17:19:17.684Z,3.40
2018-08-17T17:21:46.983Z,4.05
2018-08-17T17:24:15.958Z,3.40
2018-08-17T17:26:44.461Z,3.17
2018-08-17T17:29:13.346Z,3.70
2018-08-17T17:31:42.342Z,4.30
2018-08-17T17:34:12.439Z,3.60
2018-08-17T17:36:40.739Z,3.27
2018-08-17T17:39:11.366Z,3.12
2018-08-17T17:41:39.672Z,3.20
2018-08-17T17:44:07.921Z,3.65
2018-08-17T17:46:36.569Z,3.60
2018-08-17T17:49:04.827Z,2.98
2018-08-17T17:51:33.482Z,3.27
2018-08-17T17:54:02.022Z,2.98
2018-08-17T17:56:30.356Z,2.72
2018-08-17T17:59:02.777Z,3.12
2018-08-17T18:01:31.050Z,3.25
2018-08-17T18:03:59.316Z,3.52
2018-08-17T18:06:27.573Z,2.87
2018-08-17T18:08:58.634Z,3.00
2018-08-17T18:11:26.942Z,3.80
2018-08-17T18:13:55.210Z,2.83
2018-08-17T18:16:23.504Z,3.00
2018-08-17T18:18:53.960Z,3.52
2018-08-17T18:21:23.924Z,2.63
2018-08-17T18:23:56.602Z,2.73
2018-08-17T18:26:27.039Z,3.37
2018-08-17T18:28:56.434Z,3.50
2018-08-17T18:31:25.518Z,3.63
2018-08-17T18:33:53.780Z,3.87
2018-08-17T18:36:22.087Z,4.10
2018-08-17T18:38:50.323Z,3.80
2018-08-17T18:41:18.584Z,4.20
2018-08-17T18:43:46.838Z,4.13
2018-08-17T18:46:15.980Z,4.17
2018-08-17T18:48:44.928Z,4.23
2018-08-17T18:51:13.178Z,4.03
2018-08-17T18:53:42.791Z,3.98
2018-08-17T18:56:11.065Z,5.55
2018-08-17T18:58:39.335Z,4.63
2018-08-17T19:01:07.643Z,19.93
2018-08-17T19:03:36.680Z,22.22
2018-08-17T19:06:05.240Z,9.27
2018-08-17T19:08:34.626Z,4.73
2018-08-17T19:11:02.904Z,5.10
2018-08-17T19:13:31.191Z,8.70
2018-08-17T19:15:59.607Z,16.15
2018-08-17T19:18:32.411Z,17.93
2018-08-17T19:21:04.066Z,10.47
2018-08-17T19:23:32.411Z,8.90
2018-08-17T19:26:00.700Z,5.62
2018-08-17T19:28:28.999Z,5.70
2018-08-17T19:30:57.920Z,5.00
2018-08-17T19:33:26.910Z,4.40
2018-08-17T19:35:55.176Z,4.05
2018-08-17T19:38:23.516Z,3.93
2018-08-17T19:40:52.089Z,3.80
2018-08-17T19:43:20.475Z,4.20
2018-08-17T19:45:49.504Z,4.83
2018-08-17T19:48:19.089Z,4.37
2018-08-17T19:50:47.447Z,4.77
2018-08-17T19:53:17.301Z,4.20
2018-08-17T19:55:45.661Z,4.07
2018-08-17T19:58:14.036Z,4.53
2018-08-17T20:00:42.527Z,4.10
2018-08-17T20:03:10.774Z,4.43
2018-08-17T20:05:39.010Z,4.33
2018-08-17T20:08:07.382Z,5.10
2018-08-17T20:10:36.606Z,4.13
2018-08-17T20:13:06.404Z,4.97
2018-08-17T20:15:35.308Z,4.43
2018-08-17T20:18:04.727Z,4.10
2018-08-17T20:20:33.011Z,4.50
2018-08-17T20:23:03.339Z,4.33
2018-08-17T20:25:31.632Z,4.27
2018-08-17T20:27:59.858Z,4.67
2018-08-17T20:30:28.133Z,5.03
2018-08-17T20:32:56.590Z,5.10
2018-08-17T20:35:24.926Z,5.10
2018-08-17T20:37:54.609Z,5.20
2018-08-17T20:40:24.355Z,5.50
2018-08-17T20:42:52.883Z,5.03
2018-08-17T20:45:26.036Z,5.13
2018-08-17T20:47:54.418Z,4.73
2018-08-17T20:50:22.773Z,4.97
2018-08-17T20:52:56.461Z,4.97
2018-08-17T20:55:24.801Z,4.53
2018-08-17T20:57:54.252Z,5.10
2018-08-17T21:00:24.364Z,5.03
2018-08-17T21:02:52.677Z,4.30
2018-08-17T21:05:21.130Z,4.92
2018-08-17T21:07:51.317Z,4.53
2018-08-17T21:10:20.732Z,5.00
2018-08-17T21:12:49.479Z,5.27
2018-08-17T21:15:19.660Z,4.80
2018-08-17T21:17:48.385Z,5.10
2018-08-17T21:20:16.653Z,5.57
2018-08-17T21:22:45.173Z,4.55
2018-08-17T21:25:13.551Z,5.43
2018-08-17T21:27:41.851Z,4.87
2018-08-17T21:30:10.582Z,5.30
2018-08-17T21:32:40.266Z,5.10
2018-08-17T21:35:12.160Z,5.30
2018-08-17T21:40:14.245Z,5.30
2018-08-17T21:42:42.821Z,4.77
2018-08-17T21:45:12.052Z,5.20
2018-08-17T21:47:40.353Z,4.73
2018-08-17T21:50:14.633Z,4.85
2018-08-17T21:52:43.736Z,5.30
2018-08-17T21:55:12.145Z,5.25
2018-08-17T21:57:40.394Z,5.17
2018-08-17T22:00:12.089Z,4.93
2018-08-17T22:02:40.337Z,4.93
2018-08-17T22:05:09.695Z,4.67
2018-08-17T22:07:38.023Z,4.40
2018-08-17T22:10:07.780Z,3.93
2018-08-17T22:12:36.663Z,3.93
2018-08-17T22:15:06.125Z,3.57
2018-08-17T22:17:36.830Z,3.90
2018-08-17T22:20:07.526Z,3.70
2018-08-17T22:22:36.171Z,3.73
2018-08-17T22:25:12.363Z,3.80
2018-08-17T22:27:41.316Z,3.42
2018-08-17T22:30:16.587Z,3.50
2018-08-17T22:32:44.818Z,3.70
2018-08-17T22:35:13.212Z,4.00
2018-08-17T22:37:41.719Z,3.70
2018-08-17T22:40:09.995Z,3.57
2018-08-17T22:50:44.026Z,3.63
2018-08-17T22:53:12.618Z,3.73
2018-08-17T22:55:40.907Z,3.57
2018-08-17T22:58:09.199Z,4.10
2018-08-17T23:03:20.218Z,4.20
2018-08-17T23:05:48.485Z,3.70
2018-08-17T23:08:17.808Z,3.83
2018-08-17T23:10:46.121Z,3.93
2018-08-17T23:13:14.838Z,4.53
2018-08-17T23:15:43.151Z,4.00
2018-08-17T23:18:11.694Z,3.70
2018-08-17T23:20:51.570Z,4.58
2018-08-17T23:23:26.315Z,3.56
2018-08-17T23:25:57.646Z,4.03
2018-08-17T23:28:32.983Z,4.80
2018-08-17T23:31:05.217Z,4.50
2018-08-17T23:33:37.506Z,3.80
2018-08-17T23:36:15.623Z,3.83
2018-08-17T23:38:48.225Z,4.87
2018-08-17T23:41:18.732Z,4.53
2018-08-17T23:43:47.012Z,4.07
2018-08-17T23:46:15.342Z,5.03
2018-08-17T23:48:43.892Z,4.63
2018-08-17T23:51:12.324Z,4.50
2018-08-17T23:53:40.586Z,4.60
2018-08-17T23:56:08.955Z,4.37
2018-08-17T23:58:37.242Z,4.40
